| time (UTC) | temp F | wind direction | speed knots | gust knots | rain 1hr in | rain 24hr in | rain mn in | humidity % | barometer mb |
| 20260506061522 | 47 | 235 | 2.6 | 5.2 | 0.00 | 0.00 | 0.00 | 60 | 1011.9 |
| 20260506060522 | 46 | 250 | 3.5 | 5.2 | 0.00 | 0.00 | 0.00 | 64 | 1011.8 |
| 20260506050521 | 42 | 237 | 1.7 | 4.3 | 0.00 | 0.00 | 0.00 | 75 | 1011.3 |
| 20260506044521 | 40 | 196 | 2.6 | 4.3 | 0.00 | 0.00 | 0.00 | 80 | 1011.2 |
| 20260506043519 | 39 | 200 | 1.7 | 3.5 | 0.00 | 0.00 | 0.00 | 84 | 1011.1 |
| 20260506042520 | 37 | 233 | 0.9 | 1.7 | 0.00 | 0.00 | 0.00 | 87 | 1011.0 |
| 20260506041519 | 35 | 233 | 0.0 | 0.9 | 0.00 | 0.00 | 0.00 | 89 | 1010.8 |
| 20260506040518 | 33 | 233 | 0.0 | 0.0 | 0.00 | 0.00 | 0.00 | 95 | 1010.7 |
| 20260506035519 | 30 | 233 | 0.0 | 0.0 | 0.00 | 0.00 | 0.00 | 95 | 1010.6 |
| 20260506034519 | 28 | 233 | 0.0 | 0.0 | 0.00 | 0.00 | 0.00 | 94 | 1010.6 |
| 20260506033518 | 27 | 233 | 0.0 | 0.0 | 0.00 | 0.00 | 0.00 | 94 | 1010.4 |
| 20260506032519 | 27 | 233 | 0.0 | 0.0 | 0.00 | 0.00 | 0.00 | 93 | 1010.4 |
| 20260506031518 | 27 | 233 | 0.0 | 0.0 | 0.00 | 0.00 | 0.00 | 92 | 1010.2 |
| 20260506030517 | 27 | 233 | 0.0 | 0.9 | 0.00 | 0.00 | 0.00 | 93 | 1010.1 |
| 20260506025517 | 27 | 233 | 0.9 | 2.6 | 0.00 | 0.00 | 0.00 | 93 | 1010.0 |
| 20260506024517 | 26 | 233 | 0.0 | 1.7 | 0.00 | 0.00 | 0.00 | 93 | 1009.9 |
| 20260506023517 | 26 | 233 | 0.0 | 0.0 | 0.00 | 0.00 | 0.00 | 93 | 1009.9 |
| 20260506022517 | 26 | 233 | 0.0 | 0.0 | 0.00 | 0.00 | 0.00 | 93 | 1009.8 |
| 20260506021516 | 26 | 234 | 0.0 | 0.0 | 0.00 | 0.00 | 0.00 | 93 | 1009.7 |
| 20260506020516 | 26 | 234 | 0.0 | 0.0 | 0.00 | 0.00 | 0.00 | 92 | 1009.7 |
| 20260506015516 | 26 | 234 | 0.0 | 0.0 | 0.00 | 0.00 | 0.00 | 91 | 1009.6 |
| 20260506014515 | 26 | 234 | 0.0 | 0.0 | 0.00 | 0.00 | 0.00 | 91 | 1009.5 |
| 20260506013516 | 26 | 234 | 0.0 | 0.0 | 0.00 | 0.00 | 0.00 | 91 | 1009.3 |
| 20260506012515 | 26 | 234 | 0.0 | 0.0 | 0.00 | 0.00 | 0.00 | 91 | 1009.3 |
| 20260506011516 | 26 | 234 | 0.0 | 0.0 | 0.00 | 0.00 | 0.00 | 91 | 1009.1 |
| 20260506010515 | 27 | 234 | 0.0 | 0.0 | 0.00 | 0.00 | 0.00 | 91 | 1009.1 |
| 20260506005514 | 27 | 234 | 0.0 | 0.0 | 0.00 | 0.00 | 0.00 | 91 | 1009.1 |
| 20260506004514 | 27 | 234 | 0.0 | 0.0 | 0.00 | 0.00 | 0.00 | 91 | 1009.0 |
| 20260506003514 | 27 | 234 | 0.0 | 0.0 | 0.00 | 0.00 | 0.00 | 91 | 1009.0 |
| 20260506002513 | 27 | 234 | 0.0 | 0.0 | 0.00 | 0.00 | 0.00 | 90 | 1008.9 |
| 20260506001514 | 27 | 234 | 0.0 | 0.0 | 0.00 | 0.00 | 0.00 | 90 | 1008.8 |
| 20260506000513 | 28 | 234 | 0.0 | 0.0 | 0.00 | 0.01 | 0.00 | 90 | 1008.7 |
| 20260505235514 | 28 | 234 | 0.0 | 0.0 | 0.00 | 0.01 | 0.00 | 89 | 1008.7 |
| 20260505234513 | 28 | 234 | 0.0 | 0.0 | 0.00 | 0.01 | 0.00 | 89 | 1008.7 |
| 20260505233512 | 28 | 234 | 0.0 | 0.0 | 0.00 | 0.01 | 0.00 | 90 | 1008.8 |
| 20260505232513 | 28 | 234 | 0.0 | 0.0 | 0.00 | 0.01 | 0.00 | 89 | 1008.6 |
| 20260505231512 | 28 | 234 | 0.0 | 0.0 | 0.00 | 0.01 | 0.00 | 88 | 1008.7 |
| 20260505230511 | 29 | 234 | 0.0 | 0.0 | 0.00 | 0.01 | 0.00 | 87 | 1008.6 |
| 20260505225511 | 29 | 234 | 0.0 | 0.0 | 0.00 | 0.01 | 0.00 | 87 | 1008.6 |
| 20260505224511 | 29 | 234 | 0.0 | 0.0 | 0.00 | 0.01 | 0.00 | 87 | 1008.6 |
| 20260505223511 | 30 | 234 | 0.0 | 0.0 | 0.00 | 0.01 | 0.00 | 86 | 1008.5 |
| 20260505222512 | 30 | 234 | 0.0 | 0.0 | 0.00 | 0.01 | 0.00 | 85 | 1008.5 |
| 20260505221510 | 30 | 234 | 0.0 | 0.0 | 0.00 | 0.01 | 0.00 | 85 | 1008.4 |
| 20260505220510 | 31 | 234 | 0.0 | 0.0 | 0.00 | 0.01 | 0.00 | 84 | 1008.4 |
| 20260505215511 | 31 | 234 | 0.0 | 0.0 | 0.00 | 0.01 | 0.00 | 83 | 1008.4 |
| 20260505214509 | 31 | 234 | 0.0 | 0.0 | 0.00 | 0.01 | 0.00 | 82 | 1008.4 |
| 20260505213510 | 32 | 234 | 0.0 | 0.0 | 0.00 | 0.01 | 0.00 | 81 | 1008.4 |
| 20260505212509 | 33 | 234 | 0.0 | 0.0 | 0.00 | 0.01 | 0.00 | 81 | 1008.3 |
| 20260505211508 | 33 | 234 | 0.0 | 0.9 | 0.00 | 0.01 | 0.00 | 81 | 1008.2 |
| 20260505210509 | 34 | 234 | 0.0 | 0.9 | 0.00 | 0.01 | 0.00 | 80 | 1008.1 |
| 20260505205509 | 34 | 234 | 0.0 | 1.7 | 0.00 | 0.01 | 0.01 | 80 | 1008.1 |
| 20260505204508 | 35 | 234 | 0.9 | 2.6 | 0.00 | 0.01 | 0.01 | 79 | 1008.0 |
| 20260505203509 | 35 | 235 | 0.0 | 1.7 | 0.00 | 0.01 | 0.01 | 79 | 1007.8 |
| 20260505202508 | 35 | 235 | 0.9 | 1.7 | 0.00 | 0.01 | 0.01 | 77 | 1007.8 |
| 20260505201508 | 36 | 234 | 0.0 | 1.7 | 0.00 | 0.02 | 0.01 | 77 | 1007.7 |
| 20260505200507 | 36 | 235 | 0.0 | 1.7 | 0.00 | 0.04 | 0.01 | 77 | 1007.6 |
| 20260505195504 | 37 | 235 | 1.7 | 2.6 | 0.00 | 0.04 | 0.01 | 76 | 1007.5 |
| 20260505194504 | 37 | 235 | 0.0 | 1.7 | 0.00 | 0.04 | 0.01 | 75 | 1007.5 |
| 20260505193506 | 38 | 235 | 0.0 | 1.7 | 0.00 | 0.04 | 0.01 | 74 | 1007.4 |
| 20260505192504 | 38 | 235 | 0.0 | 1.7 | 0.00 | 0.04 | 0.01 | 72 | 1007.4 |
| 20260505191518 | 39 | 235 | 0.0 | 1.7 | 0.00 | 0.04 | 0.01 | 70 | 1007.3 |
| 20260505190504 | 40 | 226 | 0.9 | 3.5 | 0.00 | 0.04 | 0.01 | 69 | 1007.2 |
| 20260505185505 | 41 | 231 | 0.9 | 2.6 | 0.00 | 0.04 | 0.01 | 68 | 1007.2 |
| 20260505184504 | 41 | 231 | 0.9 | 3.5 | 0.00 | 0.04 | 0.01 | 66 | 1007.1 |
| 20260505183505 | 42 | 235 | 0.9 | 4.3 | 0.00 | 0.04 | 0.01 | 64 | 1007.0 |
| 20260505182510 | 43 | 238 | 0.0 | 4.3 | 0.00 | 0.04 | 0.01 | 63 | 1006.8 |
| 20260505181504 | 43 | 243 | 1.7 | 2.6 | 0.00 | 0.04 | 0.01 | 61 | 1006.7 |
| 20260505180506 | 44 | 252 | 1.7 | 3.5 | 0.00 | 0.04 | 0.01 | 59 | 1006.6 |
| 20260505175505 | 44 | 271 | 1.7 | 6.1 | 0.00 | 0.04 | 0.01 | 58 | 1006.5 |
| 20260505174504 | 45 | 226 | 2.6 | 7.8 | 0.00 | 0.04 | 0.01 | 56 | 1006.5 |
| 20260505173504 | 46 | 251 | 3.5 | 7.8 | 0.00 | 0.04 | 0.01 | 55 | 1006.5 |
| 20260505172506 | 46 | 228 | 1.7 | 6.1 | 0.00 | 0.04 | 0.01 | 55 | 1006.3 |
| 20260505171505 | 46 | 203 | 2.6 | 7.8 | 0.00 | 0.04 | 0.01 | 53 | 1006.3 |
| 20260505170504 | 46 | 221 | 2.6 | 7.8 | 0.00 | 0.04 | 0.01 | 52 | 1006.3 |
| 20260505165504 | 46 | 228 | 3.5 | 9.6 | 0.00 | 0.04 | 0.01 | 51 | 1006.1 |
| 20260505164505 | 47 | 203 | 5.2 | 8.7 | 0.00 | 0.04 | 0.01 | 50 | 1006.1 |
| 20260505163504 | 48 | 227 | 3.5 | 11.3 | 0.00 | 0.04 | 0.01 | 48 | 1005.9 |
| 20260505162504 | 49 | 230 | 5.2 | 11.3 | 0.00 | 0.04 | 0.01 | 48 | 1006.0 |
| 20260505161504 | 50 | 221 | 4.3 | 11.3 | 0.00 | 0.04 | 0.01 | 46 | 1005.9 |
| 20260505160503 | 51 | 234 | 5.2 | 9.6 | 0.00 | 0.04 | 0.01 | 46 | 1005.9 |
| 20260505152504 | 51 | 240 | 3.5 | 12.2 | 0.00 | 0.04 | 0.01 | 46 | 1005.5 |
| 20260505151504 | 51 | 243 | 3.5 | 8.7 | 0.00 | 0.04 | 0.01 | 47 | 1005.5 |
| 20260505150504 | 51 | 247 | 6.1 | 15.6 | 0.00 | 0.04 | 0.01 | 47 | 1005.5 |
| 20260505140515 | 52 | 261 | 7.8 | 13.9 | 0.00 | 0.04 | 0.01 | 43 | 1005.2 |
| 20260505124503 | 52 | 196 | 7.8 | 13.0 | 0.00 | 0.04 | 0.01 | 46 | 1004.9 |
| 20260505123503 | 53 | 212 | 5.2 | 16.5 | 0.00 | 0.04 | 0.01 | 45 | 1004.8 |
| 20260505122502 | 53 | 220 | 5.2 | 15.6 | 0.00 | 0.04 | 0.01 | 43 | 1004.6 |
| 20260505121503 | 53 | 241 | 7.0 | 14.8 | 0.00 | 0.04 | 0.01 | 42 | 1004.5 |
| 20260505120503 | 52 | 207 | 7.0 | 13.9 | 0.00 | 0.04 | 0.01 | 45 | 1004.6 |
| 20260505115503 | 53 | 204 | 6.1 | 13.9 | 0.00 | 0.04 | 0.01 | 44 | 1004.4 |
| 20260505114500 | 52 | 252 | 8.7 | 16.5 | 0.00 | 0.04 | 0.01 | 44 | 1004.2 |
| 20260505113500 | 53 | 231 | 4.3 | 12.2 | 0.00 | 0.04 | 0.01 | 44 | 1004.1 |
| 20260505112458 | 54 | 230 | 6.1 | 14.8 | 0.00 | 0.04 | 0.01 | 45 | 1004.1 |
| 20260505111458 | 52 | 213 | 4.3 | 6.1 | 0.00 | 0.04 | 0.01 | 49 | 1003.9 |
| 20260505110457 | 50 | 266 | 5.2 | 12.2 | 0.00 | 0.04 | 0.01 | 48 | 1003.9 |
| 20260505101455 | 50 | 203 | 2.6 | 8.7 | 0.00 | 0.04 | 0.01 | 56 | 1003.5 |
| 20260505100455 | 51 | 233 | 3.5 | 11.3 | 0.00 | 0.04 | 0.01 | 55 | 1003.5 |
| 20260505095455 | 50 | 203 | 3.5 | 11.3 | 0.00 | 0.05 | 0.01 | 58 | 1003.2 |
| 20260505094454 | 50 | 216 | 5.2 | 10.4 | 0.00 | 0.05 | 0.01 | 59 | 1003.3 |
| 20260505093454 | 50 | 226 | 2.6 | 7.8 | 0.00 | 0.05 | 0.01 | 58 | 1003.2 |
| 20260505092453 | 51 | 262 | 4.3 | 10.4 | 0.00 | 0.05 | 0.01 | 56 | 1003.0 |
| 20260505091453 | 52 | 271 | 2.6 | 6.1 | 0.00 | 0.06 | 0.01 | 63 | 1003.0 |
| 20260505090453 | 50 | 221 | 8.7 | 12.2 | 0.00 | 0.06 | 0.01 | 62 | 1003.0 |
| 20260505085452 | 50 | 221 | 5.2 | 9.6 | 0.00 | 0.06 | 0.01 | 64 | 1002.8 |
| 20260505084453 | 51 | 212 | 3.5 | 6.1 | 0.00 | 0.06 | 0.01 | 63 | 1002.7 |
| 20260505083452 | 50 | 247 | 6.1 | 9.6 | 0.00 | 0.07 | 0.01 | 61 | 1002.6 |
| 20260505082451 | 50 | 220 | 3.5 | 9.6 | 0.00 | 0.08 | 0.01 | 64 | 1002.5 |
| 20260505081451 | 48 | 251 | 4.3 | 11.3 | 0.00 | 0.09 | 0.01 | 64 | 1002.2 |
| 20260505080452 | 49 | 265 | 4.3 | 10.4 | 0.00 | 0.11 | 0.01 | 66 | 1002.2 |
| 20260505075451 | 49 | 259 | 5.2 | 9.6 | 0.00 | 0.12 | 0.01 | 67 | 1002.0 |
| 20260505074456 | 49 | 261 | 3.5 | 7.8 | 0.00 | 0.13 | 0.01 | 67 | 1001.8 |
| 20260505073451 | 49 | 238 | 1.7 | 9.6 | 0.00 | 0.13 | 0.01 | 67 | 1001.7 |
| 20260505072450 | 51 | 233 | 4.3 | 13.9 | 0.00 | 0.13 | 0.01 | 64 | 1001.5 |
| 20260505071450 | 51 | 259 | 5.2 | 11.3 | 0.00 | 0.13 | 0.01 | 68 | 1001.3 |
| 20260505070455 | 51 | 264 | 4.3 | 7.8 | 0.00 | 0.13 | 0.01 | 69 | 1001.0 |
| 20260505065450 | 50 | 207 | 3.5 | 11.3 | 0.00 | 0.13 | 0.01 | 70 | 1001.0 |
| 20260505064450 | 51 | 216 | 2.6 | 8.7 | 0.00 | 0.13 | 0.01 | 70 | 1000.8 |
| 20260505063449 | 50 | 210 | 5.2 | 9.6 | 0.00 | 0.13 | 0.01 | 74 | 1000.7 |